LEZL Airport Information

Runway Information
Runway 09 Length 11024 ft width 148 ft
Elevation 83 ft Threshold 0 ft Heading 90
Runway 27 Length 11024 ft Width 148 ft
Elevation 111 ft Threshold 0 ft Heading 270
Airport Frequencies
Type APP Name APP Frequency 120 MHZ
Type ATIS Name ATIS Frequency 118.175 MHZ
Type GND Name GND Frequency 121.7 MHZ
Type TWR Name TWR Frequency 118.1 MHZ
Airport Navaids
Type NDB Name Sevilla Frequency 420 KHZ
Type VOR-DME Name Sevilla Frequency 113700 KHZ
Airport Weather Information & NOTAM
ADDS - METARS form results

(1610 UTC 24 June 2021)
Data provider http://aviationweather.gov/metar/data/
 
METAR text: LEZL 241600Z 35008KT 310V030 CAVOK 35/06 Q1014 NOSIG
Conditions at: LEZL (SEVILLA (CIV/MIL, ES) observed 1600 UTC 24 June 2021
Temperature: 35.0°C (95°F)
Dewpoint: 6.0°C (43°F) [RH = 17%]
Pressure (altimeter): 29.94 inches Hg (1014.0 mb)
Winds: from the N (350 degrees) at 9 MPH (8 knots; 4.1 m/s)
Visibility: 6 or more miles (10+ km)
Ceiling: ceiling and visibility are OK
Clouds: unknown
Weather: no significant weather observed at this time

METAR text: LEZL 241530Z 01008KT 280V060 CAVOK 36/08 Q1014 NOSIG
Conditions at: LEZL (SEVILLA (CIV/MIL, ES) observed 1530 UTC 24 June 2021
Temperature: 36.0°C (97°F)
Dewpoint: 8.0°C (46°F) [RH = 18%]
Pressure (altimeter): 29.94 inches Hg (1014.0 mb)
Winds: from the N (10 degrees) at 9 MPH (8 knots; 4.1 m/s)
Visibility: 6 or more miles (10+ km)
Ceiling: ceiling and visibility are OK
Clouds: unknown
Weather: no significant weather observed at this time

Forecast for: LEZL (SEVILLA (CIV/MIL, ES)
Text: TAF LEZL 241400Z 2415/2515 07005KT CAVOK TX36/2515Z TN18/2505Z
Forecast period: 1500 UTC 24 June 2021 to 1500 UTC 25 June 2021
Forecast type: FROM: standard forecast or significant change
Winds: from the ENE (70 degrees) at 6 MPH (5 knots; 2.6 m/s)
Visibility: 6 or more miles (10+ km)
Ceiling: unknown
Clouds: missing
Weather: no significant weather forecast for this period
Text: TEMPO 2419/2423 22010KT
Forecast period: 1900 to 2300 UTC 24 June 2021
Forecast type: TEMPORARY: The following changes expected for less than half the time period
Winds: from the SW (220 degrees) at 12 MPH (10 knots; 5.1 m/s)
Visibility: missing
Ceiling: unknown
Clouds: missing
Weather: no significant weather forecast for this period